sensor_id;sensor_type;location;lat;lon;timestamp;P1;durP1;ratioP1;P2;durP2;ratioP2
16326;SDS011;34812;49.846;9.610;2023-06-10T00:00:45;5.28;;;4.78;;
16326;SDS011;34812;49.846;9.610;2023-06-10T00:01:46;4.78;;;4.47;;
16326;SDS011;34812;49.846;9.610;2023-06-10T00:02:49;5.45;;;4.95;;
16326;SDS011;34812;49.846;9.610;2023-06-10T00:03:50;4.93;;;4.50;;
16326;SDS011;34812;49.846;9.610;2023-06-10T00:04:52;5.50;;;5.00;;
16326;SDS011;34812;49.846;9.610;2023-06-10T00:05:54;4.90;;;4.50;;
16326;SDS011;34812;49.846;9.610;2023-06-10T00:06:57;5.13;;;4.65;;
16326;SDS011;34812;49.846;9.610;2023-06-10T00:07:58;5.70;;;5.07;;
16326;SDS011;34812;49.846;9.610;2023-06-10T00:09:02;5.38;;;4.88;;
16326;SDS011;34812;49.846;9.610;2023-06-10T00:10:04;5.00;;;4.60;;
16326;SDS011;34812;49.846;9.610;2023-06-10T00:11:07;5.60;;;5.20;;
16326;SDS011;34812;49.846;9.610;2023-06-10T00:12:08;5.07;;;4.68;;
16326;SDS011;34812;49.846;9.610;2023-06-10T00:13:10;4.85;;;4.53;;
16326;SDS011;34812;49.846;9.610;2023-06-10T00:14:12;4.85;;;4.50;;
16326;SDS011;34812;49.846;9.610;2023-06-10T00:15:14;5.60;;;5.20;;
16326;SDS011;34812;49.846;9.610;2023-06-10T00:16:15;5.38;;;4.93;;
16326;SDS011;34812;49.846;9.610;2023-06-10T00:17:18;5.40;;;5.03;;
16326;SDS011;34812;49.846;9.610;2023-06-10T00:18:19;5.75;;;4.78;;
16326;SDS011;34812;49.846;9.610;2023-06-10T00:19:22;5.45;;;5.03;;
16326;SDS011;34812;49.846;9.610;2023-06-10T00:20:25;5.35;;;4.95;;
16326;SDS011;34812;49.846;9.610;2023-06-10T00:21:27;5.28;;;4.78;;
16326;SDS011;34812;49.846;9.610;2023-06-10T00:22:30;5.82;;;4.75;;
16326;SDS011;34812;49.846;9.610;2023-06-10T00:23:32;5.65;;;4.97;;
16326;SDS011;34812;49.846;9.610;2023-06-10T00:24:37;4.93;;;4.63;;
16326;SDS011;34812;49.846;9.610;2023-06-10T00:25:40;5.00;;;4.60;;
16326;SDS011;34812;49.846;9.610;2023-06-10T00:26:41;4.82;;;4.32;;
16326;SDS011;34812;49.846;9.610;2023-06-10T00:27:44;6.03;;;4.82;;
16326;SDS011;34812;49.846;9.610;2023-06-10T00:28:45;5.30;;;4.90;;
16326;SDS011;34812;49.846;9.610;2023-06-10T00:29:47;5.57;;;5.07;;
16326;SDS011;34812;49.846;9.610;2023-06-10T00:30:48;5.05;;;4.65;;
16326;SDS011;34812;49.846;9.610;2023-06-10T00:31:51;4.43;;;4.13;;
16326;SDS011;34812;49.846;9.610;2023-06-10T00:32:53;5.75;;;5.05;;
16326;SDS011;34812;49.846;9.610;2023-06-10T00:33:55;5.40;;;5.00;;
16326;SDS011;34812;49.846;9.610;2023-06-10T00:34:58;4.70;;;4.30;;
16326;SDS011;34812;49.846;9.610;2023-06-10T00:36:01;4.85;;;4.45;;
16326;SDS011;34812;49.846;9.610;2023-06-10T00:37:02;4.70;;;4.40;;
16326;SDS011;34812;49.846;9.610;2023-06-10T00:38:05;4.85;;;4.45;;
16326;SDS011;34812;49.846;9.610;2023-06-10T00:39:07;5.30;;;4.90;;
16326;SDS011;34812;49.846;9.610;2023-06-10T00:40:10;6.47;;;4.63;;
16326;SDS011;34812;49.846;9.610;2023-06-10T00:41:13;5.03;;;4.63;;
16326;SDS011;34812;49.846;9.610;2023-06-10T00:42:14;5.57;;;5.10;;
16326;SDS011;34812;49.846;9.610;2023-06-10T00:43:16;4.93;;;4.53;;
16326;SDS011;34812;49.846;9.610;2023-06-10T00:44:17;5.32;;;4.93;;
16326;SDS011;34812;49.846;9.610;2023-06-10T00:45:19;4.95;;;4.55;;
16326;SDS011;34812;49.846;9.610;2023-06-10T00:46:21;5.10;;;4.60;;
16326;SDS011;34812;49.846;9.610;2023-06-10T00:47:23;6.10;;;4.80;;
16326;SDS011;34812;49.846;9.610;2023-06-10T00:48:24;5.05;;;4.35;;
16326;SDS011;34812;49.846;9.610;2023-06-10T00:49:26;4.68;;;4.38;;
16326;SDS011;34812;49.846;9.610;2023-06-10T00:50:28;5.07;;;4.68;;
16326;SDS011;34812;49.846;9.610;2023-06-10T00:51:31;5.00;;;4.70;;
16326;SDS011;34812;49.846;9.610;2023-06-10T00:52:32;5.07;;;4.78;;
16326;SDS011;34812;49.846;9.610;2023-06-10T00:53:37;4.78;;;4.47;;
16326;SDS011;34812;49.846;9.610;2023-06-10T00:54:39;4.75;;;4.35;;
16326;SDS011;34812;49.846;9.610;2023-06-10T00:55:42;5.03;;;4.63;;
16326;SDS011;34812;49.846;9.610;2023-06-10T00:56:43;4.50;;;4.20;;
16326;SDS011;34812;49.846;9.610;2023-06-10T00:57:46;6.53;;;4.72;;
16326;SDS011;34812;49.846;9.610;2023-06-10T00:58:48;5.38;;;4.97;;
16326;SDS011;34812;49.846;9.610;2023-06-10T00:59:50;5.00;;;4.60;;
16326;SDS011;34812;49.846;9.610;2023-06-10T01:00:51;4.93;;;4.53;;
16326;SDS011;34812;49.846;9.610;2023-06-10T01:01:54;4.72;;;4.43;;
16326;SDS011;34812;49.846;9.610;2023-06-10T01:02:55;4.63;;;4.22;;
16326;SDS011;34812;49.846;9.610;2023-06-10T01:03:57;5.20;;;4.75;;
16326;SDS011;34812;49.846;9.610;2023-06-10T01:04:59;5.38;;;4.88;;
16326;SDS011;34812;49.846;9.610;2023-06-10T01:06:04;4.85;;;4.45;;
16326;SDS011;34812;49.846;9.610;2023-06-10T01:07:08;5.03;;;4.70;;
16326;SDS011;34812;49.846;9.610;2023-06-10T01:08:15;5.60;;;5.07;;
16326;SDS011;34812;49.846;9.610;2023-06-10T01:09:21;5.78;;;4.63;;
16326;SDS011;34812;49.846;9.610;2023-06-10T01:10:24;4.50;;;4.10;;
16326;SDS011;34812;49.846;9.610;2023-06-10T01:11:28;5.43;;;5.03;;
16326;SDS011;34812;49.846;9.610;2023-06-10T01:12:33;4.75;;;4.32;;
16326;SDS011;34812;49.846;9.610;2023-06-10T01:13:34;5.07;;;4.57;;
16326;SDS011;34812;49.846;9.610;2023-06-10T01:14:38;4.82;;;4.43;;
16326;SDS011;34812;49.846;9.610;2023-06-10T01:15:44;5.13;;;4.72;;
16326;SDS011;34812;49.846;9.610;2023-06-10T01:16:46;5.22;;;4.70;;
16326;SDS011;34812;49.846;9.610;2023-06-10T01:17:54;5.13;;;4.65;;
16326;SDS011;34812;49.846;9.610;2023-06-10T01:18:57;4.68;;;4.28;;
16326;SDS011;34812;49.846;9.610;2023-06-10T01:20:00;4.80;;;4.40;;
16326;SDS011;34812;49.846;9.610;2023-06-10T01:21:14;4.90;;;4.45;;
16326;SDS011;34812;49.846;9.610;2023-06-10T01:22:17;5.40;;;4.90;;
16326;SDS011;34812;49.846;9.610;2023-06-10T01:23:19;4.97;;;4.57;;
16326;SDS011;34812;49.846;9.610;2023-06-10T01:24:20;5.18;;;4.78;;
16326;SDS011;34812;49.846;9.610;2023-06-10T01:25:22;5.13;;;4.72;;
16326;SDS011;34812;49.846;9.610;2023-06-10T01:26:28;5.15;;;4.75;;
16326;SDS011;34812;49.846;9.610;2023-06-10T01:27:33;4.95;;;4.55;;
16326;SDS011;34812;49.846;9.610;2023-06-10T01:28:41;5.45;;;4.80;;
16326;SDS011;34812;49.846;9.610;2023-06-10T01:29:48;5.05;;;4.75;;
16326;SDS011;34812;49.846;9.610;2023-06-10T01:30:53;4.53;;;4.22;;
16326;SDS011;34812;49.846;9.610;2023-06-10T01:31:59;5.50;;;5.10;;
16326;SDS011;34812;49.846;9.610;2023-06-10T01:33:03;5.43;;;4.93;;
16326;SDS011;34812;49.846;9.610;2023-06-10T01:34:07;5.20;;;4.88;;
16326;SDS011;34812;49.846;9.610;2023-06-10T01:35:09;4.97;;;4.68;;
16326;SDS011;34812;49.846;9.610;2023-06-10T01:36:13;4.82;;;4.43;;
16326;SDS011;34812;49.846;9.610;2023-06-10T01:37:17;5.15;;;4.78;;
16326;SDS011;34812;49.846;9.610;2023-06-10T01:38:20;5.43;;;5.03;;
16326;SDS011;34812;49.846;9.610;2023-06-10T01:39:22;5.18;;;4.78;;
16326;SDS011;34812;49.846;9.610;2023-06-10T01:40:25;4.93;;;4.57;;
16326;SDS011;34812;49.846;9.610;2023-06-10T01:41:26;5.00;;;4.60;;
16326;SDS011;34812;49.846;9.610;2023-06-10T01:42:29;5.07;;;4.75;;
16326;SDS011;34812;49.846;9.610;2023-06-10T01:43:32;4.60;;;4.30;;
16326;SDS011;34812;49.846;9.610;2023-06-10T01:44:35;4.80;;;4.50;;
16326;SDS011;34812;49.846;9.610;2023-06-10T01:45:36;4.80;;;4.50;;
16326;SDS011;34812;49.846;9.610;2023-06-10T01:46:38;6.00;;;4.90;;
16326;SDS011;34812;49.846;9.610;2023-06-10T01:47:39;4.80;;;4.45;;
16326;SDS011;34812;49.846;9.610;2023-06-10T01:48:41;5.00;;;4.60;;
16326;SDS011;34812;49.846;9.610;2023-06-10T01:49:43;5.30;;;4.85;;
16326;SDS011;34812;49.846;9.610;2023-06-10T01:50:45;4.93;;;4.60;;
16326;SDS011;34812;49.846;9.610;2023-06-10T01:51:47;5.57;;;5.03;;
16326;SDS011;34812;49.846;9.610;2023-06-10T01:52:49;5.32;;;5.00;;
16326;SDS011;34812;49.846;9.610;2023-06-10T01:53:50;5.43;;;4.43;;
16326;SDS011;34812;49.846;9.610;2023-06-10T01:54:54;4.82;;;4.53;;
16326;SDS011;34812;49.846;9.610;2023-06-10T01:55:55;5.53;;;5.10;;
16326;SDS011;34812;49.846;9.610;2023-06-10T01:56:57;5.18;;;4.80;;
16326;SDS011;34812;49.846;9.610;2023-06-10T01:57:58;5.28;;;4.80;;
16326;SDS011;34812;49.846;9.610;2023-06-10T01:59:00;4.68;;;4.38;;
16326;SDS011;34812;49.846;9.610;2023-06-10T02:00:02;5.75;;;5.35;;
16326;SDS011;34812;49.846;9.610;2023-06-10T02:01:15;5.00;;;4.60;;
16326;SDS011;34812;49.846;9.610;2023-06-10T02:02:16;5.20;;;4.72;;
16326;SDS011;34812;49.846;9.610;2023-06-10T02:03:18;5.10;;;4.70;;
16326;SDS011;34812;49.846;9.610;2023-06-10T02:04:19;5.35;;;4.85;;
16326;SDS011;34812;49.846;9.610;2023-06-10T02:05:21;4.78;;;4.38;;
16326;SDS011;34812;49.846;9.610;2023-06-10T02:06:23;4.40;;;4.03;;
16326;SDS011;34812;49.846;9.610;2023-06-10T02:07:26;5.43;;;5.03;;
16326;SDS011;34812;49.846;9.610;2023-06-10T02:08:28;4.63;;;4.22;;
16326;SDS011;34812;49.846;9.610;2023-06-10T02:09:34;4.75;;;4.45;;
16326;SDS011;34812;49.846;9.610;2023-06-10T02:10:36;5.88;;;5.03;;
16326;SDS011;34812;49.846;9.610;2023-06-10T02:11:38;4.65;;;4.25;;
16326;SDS011;34812;49.846;9.610;2023-06-10T02:12:40;4.80;;;4.43;;
16326;SDS011;34812;49.846;9.610;2023-06-10T02:13:42;5.20;;;4.70;;
16326;SDS011;34812;49.846;9.610;2023-06-10T02:14:43;5.03;;;4.63;;
16326;SDS011;34812;49.846;9.610;2023-06-10T02:15:45;4.82;;;4.53;;
16326;SDS011;34812;49.846;9.610;2023-06-10T02:16:46;5.35;;;4.93;;
16326;SDS011;34812;49.846;9.610;2023-06-10T02:17:48;5.13;;;4.63;;
16326;SDS011;34812;49.846;9.610;2023-06-10T02:18:50;4.80;;;4.47;;
16326;SDS011;34812;49.846;9.610;2023-06-10T02:19:53;5.57;;;5.18;;
16326;SDS011;34812;49.846;9.610;2023-06-10T02:20:55;5.15;;;4.75;;
16326;SDS011;34812;49.846;9.610;2023-06-10T02:21:57;4.80;;;4.47;;
16326;SDS011;34812;49.846;9.610;2023-06-10T02:23:00;5.05;;;4.55;;
16326;SDS011;34812;49.846;9.610;2023-06-10T02:24:03;4.95;;;4.47;;
16326;SDS011;34812;49.846;9.610;2023-06-10T02:25:05;5.20;;;4.80;;
16326;SDS011;34812;49.846;9.610;2023-06-10T02:26:07;4.50;;;4.20;;
16326;SDS011;34812;49.846;9.610;2023-06-10T02:27:08;5.03;;;4.70;;
16326;SDS011;34812;49.846;9.610;2023-06-10T02:28:10;4.50;;;4.20;;
16326;SDS011;34812;49.846;9.610;2023-06-10T02:29:11;5.20;;;4.80;;
16326;SDS011;34812;49.846;9.610;2023-06-10T02:30:14;4.78;;;4.40;;
16326;SDS011;34812;49.846;9.610;2023-06-10T02:31:15;4.95;;;4.55;;
16326;SDS011;34812;49.846;9.610;2023-06-10T02:32:19;4.78;;;4.30;;
16326;SDS011;34812;49.846;9.610;2023-06-10T02:33:20;5.00;;;4.60;;
16326;SDS011;34812;49.846;9.610;2023-06-10T02:34:23;4.85;;;4.53;;
16326;SDS011;34812;49.846;9.610;2023-06-10T02:35:24;5.38;;;4.88;;
16326;SDS011;34812;49.846;9.610;2023-06-10T02:36:28;4.93;;;4.63;;
16326;SDS011;34812;49.846;9.610;2023-06-10T02:37:30;5.07;;;4.68;;
16326;SDS011;34812;49.846;9.610;2023-06-10T02:38:33;5.03;;;4.70;;
16326;SDS011;34812;49.846;9.610;2023-06-10T02:39:35;5.20;;;4.78;;
16326;SDS011;34812;49.846;9.610;2023-06-10T02:40:40;4.88;;;4.57;;
16326;SDS011;34812;49.846;9.610;2023-06-10T02:41:43;5.25;;;4.75;;
16326;SDS011;34812;49.846;9.610;2023-06-10T02:42:44;4.97;;;4.68;;
16326;SDS011;34812;49.846;9.610;2023-06-10T02:43:47;5.88;;;4.93;;
16326;SDS011;34812;49.846;9.610;2023-06-10T02:44:49;4.80;;;4.38;;
16326;SDS011;34812;49.846;9.610;2023-06-10T02:45:59;5.00;;;4.57;;
16326;SDS011;34812;49.846;9.610;2023-06-10T02:47:01;5.22;;;4.65;;
16326;SDS011;34812;49.846;9.610;2023-06-10T02:48:05;5.40;;;4.90;;
16326;SDS011;34812;49.846;9.610;2023-06-10T02:49:07;4.43;;;4.13;;
16326;SDS011;34812;49.846;9.610;2023-06-10T02:50:10;4.90;;;4.47;;
16326;SDS011;34812;49.846;9.610;2023-06-10T02:51:19;5.13;;;4.72;;
16326;SDS011;34812;49.846;9.610;2023-06-10T02:52:24;5.07;;;4.68;;
16326;SDS011;34812;49.846;9.610;2023-06-10T02:53:26;5.15;;;4.75;;
16326;SDS011;34812;49.846;9.610;2023-06-10T02:54:36;4.95;;;4.55;;
16326;SDS011;34812;49.846;9.610;2023-06-10T02:55:39;4.90;;;4.40;;
16326;SDS011;34812;49.846;9.610;2023-06-10T02:56:45;5.28;;;4.80;;
16326;SDS011;34812;49.846;9.610;2023-06-10T02:57:53;4.82;;;4.43;;
16326;SDS011;34812;49.846;9.610;2023-06-10T02:58:55;4.65;;;4.35;;
16326;SDS011;34812;49.846;9.610;2023-06-10T02:59:58;5.22;;;4.82;;
16326;SDS011;34812;49.846;9.610;2023-06-10T03:01:02;5.57;;;5.18;;
16326;SDS011;34812;49.846;9.610;2023-06-10T03:02:10;4.93;;;4.53;;
16326;SDS011;34812;49.846;9.610;2023-06-10T03:03:18;5.00;;;4.50;;
16326;SDS011;34812;49.846;9.610;2023-06-10T03:04:29;5.15;;;4.75;;
16326;SDS011;34812;49.846;9.610;2023-06-10T03:05:37;4.90;;;4.47;;
16326;SDS011;34812;49.846;9.610;2023-06-10T03:06:40;5.18;;;4.72;;
16326;SDS011;34812;49.846;9.610;2023-06-10T03:07:48;5.95;;;4.80;;
16326;SDS011;34812;49.846;9.610;2023-06-10T03:08:50;6.57;;;4.97;;
16326;SDS011;34812;49.846;9.610;2023-06-10T03:09:54;5.45;;;4.95;;
16326;SDS011;34812;49.846;9.610;2023-06-10T03:10:56;5.45;;;4.85;;
16326;SDS011;34812;49.846;9.610;2023-06-10T03:11:58;5.63;;;5.22;;
16326;SDS011;34812;49.846;9.610;2023-06-10T03:13:01;6.72;;;6.07;;
16326;SDS011;34812;49.846;9.610;2023-06-10T03:14:03;11.50;;;6.32;;
16326;SDS011;34812;49.846;9.610;2023-06-10T03:15:06;8.77;;;6.32;;
16326;SDS011;34812;49.846;9.610;2023-06-10T03:16:09;7.72;;;7.03;;
16326;SDS011;34812;49.846;9.610;2023-06-10T03:17:12;7.75;;;7.10;;
16326;SDS011;34812;49.846;9.610;2023-06-10T03:18:16;9.98;;;6.85;;
16326;SDS011;34812;49.846;9.610;2023-06-10T03:19:18;7.82;;;7.22;;
16326;SDS011;34812;49.846;9.610;2023-06-10T03:20:23;8.45;;;7.43;;
16326;SDS011;34812;49.846;9.610;2023-06-10T03:21:26;8.05;;;7.40;;
16326;SDS011;34812;49.846;9.610;2023-06-10T03:22:30;9.32;;;7.45;;
16326;SDS011;34812;49.846;9.610;2023-06-10T03:23:37;9.45;;;7.28;;
16326;SDS011;34812;49.846;9.610;2023-06-10T03:24:40;8.88;;;7.95;;
16326;SDS011;34812;49.846;9.610;2023-06-10T03:25:44;8.48;;;7.75;;
16326;SDS011;34812;49.846;9.610;2023-06-10T03:26:50;7.30;;;6.68;;
16326;SDS011;34812;49.846;9.610;2023-06-10T03:27:51;7.78;;;7.05;;
16326;SDS011;34812;49.846;9.610;2023-06-10T03:28:53;8.65;;;7.65;;
16326;SDS011;34812;49.846;9.610;2023-06-10T03:29:57;8.68;;;7.78;;
16326;SDS011;34812;49.846;9.610;2023-06-10T03:31:00;10.07;;;7.63;;
16326;SDS011;34812;49.846;9.610;2023-06-10T03:32:04;8.70;;;7.90;;
16326;SDS011;34812;49.846;9.610;2023-06-10T03:33:07;11.13;;;7.78;;
16326;SDS011;34812;49.846;9.610;2023-06-10T03:34:08;8.98;;;7.70;;
16326;SDS011;34812;49.846;9.610;2023-06-10T03:35:10;8.40;;;7.68;;
16326;SDS011;34812;49.846;9.610;2023-06-10T03:36:12;9.68;;;7.45;;
16326;SDS011;34812;49.846;9.610;2023-06-10T03:37:14;8.90;;;6.88;;
16326;SDS011;34812;49.846;9.610;2023-06-10T03:38:17;9.15;;;7.30;;
16326;SDS011;34812;49.846;9.610;2023-06-10T03:39:19;9.18;;;6.90;;
16326;SDS011;34812;49.846;9.610;2023-06-10T03:40:21;6.78;;;6.20;;
16326;SDS011;34812;49.846;9.610;2023-06-10T03:41:25;9.15;;;6.82;;
16326;SDS011;34812;49.846;9.610;2023-06-10T03:42:27;7.95;;;7.15;;
16326;SDS011;34812;49.846;9.610;2023-06-10T03:43:29;8.20;;;7.13;;
16326;SDS011;34812;49.846;9.610;2023-06-10T03:44:31;7.68;;;6.95;;
16326;SDS011;34812;49.846;9.610;2023-06-10T03:45:33;8.45;;;7.65;;
16326;SDS011;34812;49.846;9.610;2023-06-10T03:46:35;7.50;;;6.90;;
16326;SDS011;34812;49.846;9.610;2023-06-10T03:47:38;7.75;;;7.15;;
16326;SDS011;34812;49.846;9.610;2023-06-10T03:48:43;9.80;;;6.93;;
16326;SDS011;34812;49.846;9.610;2023-06-10T03:49:45;8.57;;;7.85;;
16326;SDS011;34812;49.846;9.610;2023-06-10T03:50:47;8.15;;;7.35;;
16326;SDS011;34812;49.846;9.610;2023-06-10T03:51:50;8.65;;;7.50;;
16326;SDS011;34812;49.846;9.610;2023-06-10T03:52:51;7.45;;;6.82;;
16326;SDS011;34812;49.846;9.610;2023-06-10T03:53:57;8.07;;;6.90;;
16326;SDS011;34812;49.846;9.610;2023-06-10T03:54:58;7.63;;;7.00;;
16326;SDS011;34812;49.846;9.610;2023-06-10T03:56:00;8.35;;;6.78;;
16326;SDS011;34812;49.846;9.610;2023-06-10T03:57:04;9.32;;;7.53;;
16326;SDS011;34812;49.846;9.610;2023-06-10T03:58:06;8.68;;;7.28;;
16326;SDS011;34812;49.846;9.610;2023-06-10T03:59:08;7.13;;;6.53;;
16326;SDS011;34812;49.846;9.610;2023-06-10T04:00:10;7.28;;;5.93;;
16326;SDS011;34812;49.846;9.610;2023-06-10T04:01:18;9.40;;;6.32;;
16326;SDS011;34812;49.846;9.610;2023-06-10T04:02:21;7.70;;;6.25;;
16326;SDS011;34812;49.846;9.610;2023-06-10T04:03:22;6.82;;;6.13;;
16326;SDS011;34812;49.846;9.610;2023-06-10T04:04:26;6.88;;;5.95;;
16326;SDS011;34812;49.846;9.610;2023-06-10T04:05:27;8.48;;;6.68;;
16326;SDS011;34812;49.846;9.610;2023-06-10T04:06:31;6.47;;;5.90;;
16326;SDS011;34812;49.846;9.610;2023-06-10T04:07:32;6.65;;;5.88;;
16326;SDS011;34812;49.846;9.610;2023-06-10T04:08:34;7.13;;;6.47;;
16326;SDS011;34812;49.846;9.610;2023-06-10T04:09:36;6.60;;;5.65;;
16326;SDS011;34812;49.846;9.610;2023-06-10T04:10:39;6.78;;;6.07;;
16326;SDS011;34812;49.846;9.610;2023-06-10T04:11:40;5.97;;;5.47;;
16326;SDS011;34812;49.846;9.610;2023-06-10T04:12:44;5.88;;;5.25;;
16326;SDS011;34812;49.846;9.610;2023-06-10T04:13:45;6.70;;;6.10;;
16326;SDS011;34812;49.846;9.610;2023-06-10T04:14:47;5.95;;;5.45;;
16326;SDS011;34812;49.846;9.610;2023-06-10T04:15:49;6.53;;;5.70;;
16326;SDS011;34812;49.846;9.610;2023-06-10T04:16:52;9.50;;;6.00;;
16326;SDS011;34812;49.846;9.610;2023-06-10T04:17:53;7.93;;;6.03;;
16326;SDS011;34812;49.846;9.610;2023-06-10T04:18:58;6.95;;;5.82;;
16326;SDS011;34812;49.846;9.610;2023-06-10T04:19:59;6.90;;;5.72;;
16326;SDS011;34812;49.846;9.610;2023-06-10T04:21:02;6.68;;;6.18;;
16326;SDS011;34812;49.846;9.610;2023-06-10T04:22:05;6.25;;;5.70;;
16326;SDS011;34812;49.846;9.610;2023-06-10T04:23:07;6.18;;;5.38;;
16326;SDS011;34812;49.846;9.610;2023-06-10T04:24:08;14.45;;;6.10;;
16326;SDS011;34812;49.846;9.610;2023-06-10T04:25:11;8.15;;;6.20;;
16326;SDS011;34812;49.846;9.610;2023-06-10T04:26:13;8.95;;;5.80;;
16326;SDS011;34812;49.846;9.610;2023-06-10T04:27:16;8.15;;;6.30;;
16326;SDS011;34812;49.846;9.610;2023-06-10T04:28:18;8.55;;;5.97;;
16326;SDS011;34812;49.846;9.610;2023-06-10T04:29:20;8.40;;;5.82;;
16326;SDS011;34812;49.846;9.610;2023-06-10T04:30:21;6.63;;;5.85;;
16326;SDS011;34812;49.846;9.610;2023-06-10T04:31:24;6.30;;;5.70;;
16326;SDS011;34812;49.846;9.610;2023-06-10T04:32:26;7.40;;;5.07;;
16326;SDS011;34812;49.846;9.610;2023-06-10T04:33:27;7.65;;;6.47;;
16326;SDS011;34812;49.846;9.610;2023-06-10T04:34:30;7.28;;;6.50;;
16326;SDS011;34812;49.846;9.610;2023-06-10T04:35:31;7.75;;;6.03;;
16326;SDS011;34812;49.846;9.610;2023-06-10T04:36:35;6.95;;;6.15;;
16326;SDS011;34812;49.846;9.610;2023-06-10T04:37:37;8.85;;;6.45;;
16326;SDS011;34812;49.846;9.610;2023-06-10T04:38:40;10.55;;;6.90;;
16326;SDS011;34812;49.846;9.610;2023-06-10T04:39:42;7.25;;;6.00;;
16326;SDS011;34812;49.846;9.610;2023-06-10T04:40:44;7.35;;;6.72;;
16326;SDS011;34812;49.846;9.610;2023-06-10T04:41:48;9.45;;;6.65;;
16326;SDS011;34812;49.846;9.610;2023-06-10T04:42:50;7.20;;;6.50;;
16326;SDS011;34812;49.846;9.610;2023-06-10T04:43:53;7.88;;;6.20;;
16326;SDS011;34812;49.846;9.610;2023-06-10T04:44:55;8.23;;;6.70;;
16326;SDS011;34812;49.846;9.610;2023-06-10T04:45:56;6.90;;;6.20;;
16326;SDS011;34812;49.846;9.610;2023-06-10T04:46:58;9.70;;;6.50;;
16326;SDS011;34812;49.846;9.610;2023-06-10T04:47:59;6.65;;;6.03;;
16326;SDS011;34812;49.846;9.610;2023-06-10T04:49:01;7.20;;;6.30;;
16326;SDS011;34812;49.846;9.610;2023-06-10T04:50:02;14.93;;;6.38;;
16326;SDS011;34812;49.846;9.610;2023-06-10T04:51:05;6.90;;;6.20;;
16326;SDS011;34812;49.846;9.610;2023-06-10T04:52:06;7.28;;;6.57;;
16326;SDS011;34812;49.846;9.610;2023-06-10T04:53:12;7.07;;;6.30;;
16326;SDS011;34812;49.846;9.610;2023-06-10T04:54:18;7.47;;;6.25;;
16326;SDS011;34812;49.846;9.610;2023-06-10T04:55:20;8.65;;;6.72;;
16326;SDS011;34812;49.846;9.610;2023-06-10T04:56:21;6.70;;;6.05;;
16326;SDS011;34812;49.846;9.610;2023-06-10T04:57:24;6.75;;;6.03;;
16326;SDS011;34812;49.846;9.610;2023-06-10T04:58:26;8.93;;;6.68;;
16326;SDS011;34812;49.846;9.610;2023-06-10T04:59:29;7.03;;;6.50;;
16326;SDS011;34812;49.846;9.610;2023-06-10T05:00:30;7.28;;;6.07;;
16326;SDS011;34812;49.846;9.610;2023-06-10T05:01:32;7.13;;;6.40;;
16326;SDS011;34812;49.846;9.610;2023-06-10T05:02:33;6.50;;;6.00;;
16326;SDS011;34812;49.846;9.610;2023-06-10T05:03:35;8.60;;;6.65;;
16326;SDS011;34812;49.846;9.610;2023-06-10T05:04:36;6.70;;;6.18;;
16326;SDS011;34812;49.846;9.610;2023-06-10T05:05:39;6.97;;;6.47;;
16326;SDS011;34812;49.846;9.610;2023-06-10T05:06:40;6.93;;;6.30;;
16326;SDS011;34812;49.846;9.610;2023-06-10T05:07:42;6.57;;;5.97;;
16326;SDS011;34812;49.846;9.610;2023-06-10T05:08:43;10.52;;;5.95;;
16326;SDS011;34812;49.846;9.610;2023-06-10T05:09:45;7.03;;;6.32;;
16326;SDS011;34812;49.846;9.610;2023-06-10T05:10:46;7.97;;;6.40;;
16326;SDS011;34812;49.846;9.610;2023-06-10T05:11:49;7.03;;;6.32;;
16326;SDS011;34812;49.846;9.610;2023-06-10T05:12:50;9.40;;;6.50;;
16326;SDS011;34812;49.846;9.610;2023-06-10T05:13:52;7.25;;;6.63;;
16326;SDS011;34812;49.846;9.610;2023-06-10T05:14:55;7.88;;;6.75;;
16326;SDS011;34812;49.846;9.610;2023-06-10T05:15:57;7.20;;;6.47;;
16326;SDS011;34812;49.846;9.610;2023-06-10T05:16:58;10.05;;;7.03;;
16326;SDS011;34812;49.846;9.610;2023-06-10T05:18:00;6.38;;;5.82;;
16326;SDS011;34812;49.846;9.610;2023-06-10T05:19:02;7.88;;;6.63;;
16326;SDS011;34812;49.846;9.610;2023-06-10T05:20:05;9.82;;;6.97;;
16326;SDS011;34812;49.846;9.610;2023-06-10T05:21:06;7.18;;;6.47;;
16326;SDS011;34812;49.846;9.610;2023-06-10T05:22:09;7.85;;;6.72;;
16326;SDS011;34812;49.846;9.610;2023-06-10T05:23:10;8.35;;;6.57;;
16326;SDS011;34812;49.846;9.610;2023-06-10T05:24:12;9.90;;;6.78;;
16326;SDS011;34812;49.846;9.610;2023-06-10T05:25:13;9.50;;;7.28;;
16326;SDS011;34812;49.846;9.610;2023-06-10T05:26:15;8.82;;;6.70;;
16326;SDS011;34812;49.846;9.610;2023-06-10T05:27:17;6.57;;;5.88;;
16326;SDS011;34812;49.846;9.610;2023-06-10T05:28:19;8.02;;;7.15;;
16326;SDS011;34812;49.846;9.610;2023-06-10T05:29:20;6.72;;;6.22;;
16326;SDS011;34812;49.846;9.610;2023-06-10T05:30:24;7.47;;;6.53;;
16326;SDS011;34812;49.846;9.610;2023-06-10T05:31:26;7.07;;;6.47;;
16326;SDS011;34812;49.846;9.610;2023-06-10T05:32:28;7.25;;;6.55;;
16326;SDS011;34812;49.846;9.610;2023-06-10T05:33:29;7.38;;;6.68;;
16326;SDS011;34812;49.846;9.610;2023-06-10T05:34:31;7.45;;;6.75;;
16326;SDS011;34812;49.846;9.610;2023-06-10T05:35:32;6.65;;;6.10;;
